KGIC

Idaho County Airport

Grangeville, Idaho, USA
METAR KGIC 140835Z AUTO 04005KT 10SM CLR M01/M06 A3015 RMK AO1
Observed Flight Rules
Dec-14 @ 08:35 UTC (8 minutes ago) Visual Flight Rules
Wind Visibility Clouds
40° at 5 knots 10 miles
  • Clear skies
Temperatures Readings
Current -1°C / 30°F
Dewpoint -6°C / 21°F
Humidity 69%
Altimeter 30.15" Hg
Pressure 1021 hPa
Elevation 1009
METAR KGIC 140835Z AUTO 04005KT 10SM CLR M01/M06 A3015 RMK AO1
Observed Flight Rules
Dec-14 @ 08:35 UTC
(8 minutes ago)
VFR
Wind Visibility
40° at 5 knots 10 miles
Clouds
  • Clear skies
Temperature Dewpoint
-1°C / 30°F -6°C / 21°F
Humidity Altimeter Pressure
69% 30.15" Hg 1021 hPa